Time;durP1;ratioP1;P1;durP2;ratioP2;P2;SDS_P1;SDS_P2;PMS_P1;PMS_P2;Temp;Humidity;BMP_temperature;BMP_pressure;BME280_temperature;BME280_humidity;BME280_pressure;Samples;Min_cycle;Max_cycle;Signal;HPM_P1;HPM_P2
2022/01/02 00:02:15;;;;;;;1.70;1.60;;;20.30;78.20;;;;;;5123689;28;20034;-43
2022/01/02 00:04:47;;;;;;;1.50;1.40;;;20.30;78.10;;;;;;5123917;28;20031;-43
2022/01/02 00:07:14;;;;;;;1.48;1.38;;;20.30;78.10;;;;;;5122601;28;20102;-43
2022/01/02 00:09:43;;;;;;;2.08;1.67;;;20.30;78.20;;;;;;5122209;28;20016;-43
2022/01/02 00:12:16;;;;;;;1.48;1.38;;;20.30;78.20;;;;;;5122209;28;20043;-43
2022/01/02 00:14:45;;;;;;;1.55;1.30;;;20.30;78.00;;;;;;5123800;28;20036;-43
2022/01/02 00:17:11;;;;;;;1.98;1.60;;;20.30;77.90;;;;;;5123295;28;20024;-42
2022/01/02 00:19:40;;;;;;;1.70;1.60;;;20.30;77.80;;;;;;5110016;28;20127;-43
2022/01/02 00:22:18;;;;;;;1.55;1.45;;;20.40;77.80;;;;;;5120431;28;20035;-43
2022/01/02 00:24:45;;;;;;;1.60;1.50;;;20.30;77.60;;;;;;5123787;28;20031;-43
2022/01/02 00:27:12;;;;;;;;;;;20.30;77.60;;;;;;5124050;28;20024;-43
2022/01/02 00:29:40;;;;;;;1.58;1.45;;;20.40;77.60;;;;;;5122310;28;20387;-43
2022/01/02 00:32:07;;;;;;;1.52;1.42;;;20.40;77.60;;;;;;5123020;28;20103;-43
2022/01/02 00:34:38;;;;;;;1.50;1.40;;;20.40;77.60;;;;;;5110067;28;20028;-44
2022/01/02 00:37:05;;;;;;;2.10;1.40;;;20.40;77.60;;;;;;5103331;28;20388;-43
2022/01/02 00:39:31;;;;;;;;;;;20.40;77.60;;;;;;5104289;28;20039;-43
2022/01/02 00:42:01;;;;;;;;;;;20.40;77.50;;;;;;5106011;28;19967;-43
2022/01/02 00:45:00;;;;;;;;;;;20.40;77.50;;;;;;5103634;28;19911;-45
2022/01/02 00:47:43;;;;;;;;;;;20.40;77.80;;;;;;5060480;28;19959;-43
2022/01/02 00:50:10;;;;;;;;;;;20.40;77.90;;;;;;5026178;28;19905;-45
2022/01/02 00:52:38;;;;;;;;;;;20.40;77.90;;;;;;5040294;28;20397;-43
2022/01/02 00:55:06;;;;;;;;;;;20.40;77.80;;;;;;5040630;28;19943;-43
2022/01/02 00:57:39;;;;;;;;;;;20.40;77.80;;;;;;5042210;28;19915;-44
2022/01/02 01:00:17;;;;;;;;;;;20.40;77.90;;;;;;5044597;28;19933;-43
2022/01/02 01:02:50;;;;;;;;;;;20.40;77.90;;;;;;5044104;28;20012;-43
2022/01/02 01:05:36;;;;;;;;;;;20.40;77.80;;;;;;5063750;28;19912;-43
2022/01/02 01:08:06;;;;;;;;;;;20.40;77.70;;;;;;5064170;28;19908;-43
2022/01/02 01:10:36;;;;;;;;;;;20.40;77.60;;;;;;5052499;28;19913;-43
2022/01/02 01:13:03;;;;;;;;;;;20.40;77.60;;;;;;5044240;28;19909;-43
2022/01/02 01:15:30;;;;;;;;;;;20.40;77.60;;;;;;5044434;28;19916;-43
2022/01/02 01:17:59;;;;;;;;;;;20.40;77.50;;;;;;5044262;28;19909;-42
2022/01/02 01:20:25;;;;;;;;;;;20.40;77.60;;;;;;5051921;28;19906;-42
2022/01/02 01:22:51;;;;;;;;;;;20.40;77.50;;;;;;5064870;28;20448;-43
2022/01/02 01:25:18;;;;;;;;;;;20.50;77.50;;;;;;5107300;28;19908;-43
2022/01/02 01:27:45;;;;;;;;;;;20.50;77.50;;;;;;5106998;28;19915;-43
2022/01/02 01:30:11;;;;;;;;;;;20.40;77.40;;;;;;5125925;28;19914;-44
2022/01/02 01:32:37;;;;;;;;;;;20.50;77.40;;;;;;5126892;28;19956;-43
2022/01/02 01:35:04;;;;;;;;;;;20.40;77.40;;;;;;5127418;28;19935;-43
2022/01/02 01:37:30;;;;;;;;;;;20.50;77.50;;;;;;5127206;28;20008;-43
2022/01/02 01:39:57;;;;;;;;;;;20.50;77.50;;;;;;5123821;28;19918;-42
2022/01/02 01:42:41;;;;;;;;;;;20.50;77.70;;;;;;5125765;28;19946;-43
2022/01/02 01:47:56;;;;;;;;;;;20.40;77.60;;;;;;5127020;28;19911;-44
2022/01/02 01:50:23;;;;;;;;;;;20.50;77.80;;;;;;5127034;28;19904;-43
2022/01/02 01:52:48;;;;;;;;;;;20.50;77.80;;;;;;5126598;28;19983;-48
2022/01/02 01:55:16;;;;;;;;;;;20.50;77.70;;;;;;5126837;28;19907;-45
2022/01/02 01:57:42;;;;;;;;;;;20.50;77.70;;;;;;5126746;28;19926;-49
2022/01/02 02:00:15;;;;;;;;;;;20.50;77.60;;;;;;5126867;28;19957;-44
2022/01/02 02:02:42;;;;;;;;;;;20.50;77.50;;;;;;5126419;28;19943;-44
2022/01/02 02:05:08;;;;;;;;;;;20.50;77.40;;;;;;5126748;28;19943;-43
2022/01/02 02:07:42;;;;;;;;;;;20.50;77.40;;;;;;5126154;28;19903;-43
2022/01/02 02:10:18;;;;;;;;;;;20.50;77.30;;;;;;5125471;28;20427;-42
2022/01/02 02:12:45;;;;;;;;;;;20.50;77.30;;;;;;5125941;28;20014;-43
2022/01/02 02:15:12;;;;;;;;;;;20.50;77.30;;;;;;5126588;28;19958;-43
2022/01/02 02:17:38;;;;;;;;;;;20.50;77.30;;;;;;5126079;28;19933;-43
2022/01/02 02:20:14;;;;;;;;;;;20.50;77.30;;;;;;5126430;28;19908;-42
2022/01/02 02:22:42;;;;;;;;;;;20.50;77.30;;;;;;5125880;28;19903;-44
2022/01/02 02:25:09;;;;;;;;;;;20.50;77.30;;;;;;5126313;28;19915;-43
2022/01/02 02:27:36;;;;;;;;;;;20.50;77.30;;;;;;5126280;28;19914;-44
2022/01/02 02:30:03;;;;;;;;;;;20.50;77.30;;;;;;5126285;28;19907;-43
2022/01/02 02:32:29;;;;;;;;;;;20.50;77.40;;;;;;5125724;28;19980;-43
2022/01/02 02:34:56;;;;;;;;;;;20.50;77.40;;;;;;5126115;28;19952;-43
2022/01/02 02:37:22;;;;;;;;;;;20.50;77.40;;;;;;5125922;28;20288;-43
2022/01/02 02:39:48;;;;;;;;;;;20.50;77.40;;;;;;5124856;28;19911;-43
2022/01/02 02:42:27;;;;;;;;;;;20.50;78.20;;;;;;5125980;28;19911;-43
2022/01/02 02:48:33;;;;;;;;;;;20.50;77.40;;;;;;5126069;27;19961;-42
2022/01/02 02:50:24;;;;;;;;;;;20.50;77.20;;;;;;5125711;28;19911;-45
2022/01/02 02:52:50;;;;;;;;;;;20.50;77.20;;;;;;5124891;28;20030;-43
2022/01/02 02:55:16;;;;;;;;;;;20.50;77.20;;;;;;5125941;28;19908;-44
2022/01/02 02:57:42;;;;;;;;;;;20.50;77.20;;;;;;5125506;28;19904;-43
2022/01/02 03:00:08;;;;;;;;;;;20.50;77.10;;;;;;5125587;28;19914;-42
2022/01/02 03:02:35;;;;;;;;;;;20.50;77.10;;;;;;5125120;28;19904;-44
2022/01/02 03:05:01;;;;;;;;;;;20.60;77.10;;;;;;5125438;28;19908;-43
2022/01/02 03:07:27;;;;;;;;;;;20.50;77.10;;;;;;5125670;28;19907;-43
2022/01/02 03:09:58;;;;;;;;;;;20.60;77.10;;;;;;5119715;28;19912;-43
2022/01/02 03:12:24;;;;;;;;;;;20.60;77.10;;;;;;5104760;28;19938;-43
2022/01/02 03:14:50;;;;;;;;;;;20.60;77.20;;;;;;5104819;28;19908;-43
2022/01/02 03:17:16;;;;;;;;;;;20.60;77.10;;;;;;5104729;28;19966;-43
2022/01/02 03:19:42;;;;;;;;;;;20.60;77.10;;;;;;5118321;28;19911;-42
2022/01/02 03:22:10;;;;;;;;;;;20.50;77.20;;;;;;5125181;28;20284;-45
2022/01/02 03:24:36;;;;;;;;;;;20.60;77.30;;;;;;5124879;28;19943;-44
2022/01/02 03:27:02;;;;;;;;;;;20.60;77.30;;;;;;5124772;28;20572;-42
2022/01/02 03:29:28;;;;;;;;;;;20.60;77.30;;;;;;5125042;28;19942;-43
2022/01/02 03:31:54;;;;;;;;;;;20.50;77.30;;;;;;5124243;27;19915;-43
2022/01/02 03:34:20;;;;;;;;;;;20.60;77.50;;;;;;5124383;28;19908;-43
2022/01/02 03:36:46;;;;;;;;;;;20.60;77.30;;;;;;5125001;28;20092;-43
2022/01/02 03:39:12;;;;;;;;;;;20.60;77.20;;;;;;5124487;28;19904;-45
2022/01/02 03:41:39;;;;;;;;;;;20.50;77.00;;;;;;5124262;28;19915;-43
2022/01/02 03:44:05;;;;;;;;;;;20.50;76.90;;;;;;5124629;28;20307;-43
2022/01/02 03:46:31;;;;;;;;;;;20.60;77.00;;;;;;5124331;28;19930;-44
2022/01/02 03:48:57;;;;;;;;;;;20.60;77.00;;;;;;5124410;28;19908;-45
2022/01/02 03:51:23;;;;;;;;;;;20.60;77.00;;;;;;5122382;28;19915;-43
2022/01/02 03:53:49;;;;;;;;;;;20.60;76.90;;;;;;5103970;28;19966;-43
2022/01/02 03:56:15;;;;;;;;;;;20.50;76.80;;;;;;5104011;28;19904;-42
2022/01/02 03:58:41;;;;;;;;;;;20.60;76.90;;;;;;5103996;28;19972;-43
2022/01/02 04:01:07;;;;;;;;;;;20.60;76.80;;;;;;5103966;28;19912;-42
2022/01/02 04:03:34;;;;;;;;;;;20.60;77.10;;;;;;5103468;28;19975;-43
2022/01/02 04:06:00;;;;;;;;;;;20.60;76.90;;;;;;5103948;28;19908;-43
2022/01/02 04:08:26;;;;;;;;;;;20.60;76.90;;;;;;5106243;28;20724;-43
2022/01/02 04:10:52;;;;;;;;;;;20.50;76.90;;;;;;5123013;28;19939;-43
2022/01/02 04:13:18;;;;;;;;;;;20.60;77.00;;;;;;5124319;28;19908;-44
2022/01/02 04:15:44;;;;;;;;;;;20.60;77.00;;;;;;5123854;28;19991;-43
2022/01/02 04:18:10;;;;;;;;;;;20.60;77.10;;;;;;5123862;28;19910;-42
2022/01/02 04:20:36;;;;;;;;;;;20.60;77.10;;;;;;5124017;28;19973;-43
2022/01/02 04:23:02;;;;;;;;;;;20.50;77.00;;;;;;5123738;28;19915;-42
2022/01/02 04:25:28;;;;;;;;;;;20.60;77.00;;;;;;5123914;28;19908;-43
2022/01/02 04:27:55;;;;;;;;;;;20.60;77.00;;;;;;5124002;28;19910;-43
2022/01/02 04:30:21;;;;;;;;;;;20.60;76.90;;;;;;5123655;28;19969;-43
2022/01/02 04:32:48;;;;;;;;;;;20.60;76.90;;;;;;5123720;28;19935;-43
2022/01/02 04:35:14;;;;;;;;;;;20.60;76.80;;;;;;5123847;28;19908;-42
2022/01/02 04:37:40;;;;;;;;;;;20.60;76.90;;;;;;5123898;28;19939;-42
2022/01/02 04:40:07;;;;;;;;;;;20.60;76.80;;;;;;5122960;28;19919;-43
2022/01/02 04:42:33;;;;;;;;;;;20.60;76.80;;;;;;5123824;28;19914;-43
2022/01/02 04:44:59;;;;;;;;;;;20.60;76.70;;;;;;5123685;28;19907;-43
2022/01/02 04:47:25;;;;;;;;;;;20.60;76.70;;;;;;5123399;28;19968;-43
2022/01/02 04:49:51;;;;;;;;;;;20.60;76.70;;;;;;5123662;28;19911;-43
2022/01/02 04:52:18;;;;;;;;;;;20.60;76.70;;;;;;5123586;28;19919;-43
2022/01/02 04:54:44;;;;;;;;;;;20.60;76.70;;;;;;5123525;28;19978;-43
2022/01/02 04:57:10;;;;;;;;;;;20.60;76.70;;;;;;5123674;28;19906;-43
2022/01/02 04:59:36;;;;;;;;;;;20.60;76.80;;;;;;5123418;28;19954;-43
2022/01/02 05:02:03;;;;;;;;;;;20.60;76.90;;;;;;5123941;28;19921;-43
2022/01/02 05:04:29;;;;;;;;;;;20.60;76.90;;;;;;5123360;28;19922;-43
2022/01/02 05:06:55;;;;;;;;;;;20.60;76.90;;;;;;5123839;28;19904;-43
2022/01/02 05:09:21;;;;;;;;;;;20.60;76.90;;;;;;5122367;28;19908;-44
2022/01/02 05:11:47;;;;;;;;;;;20.60;76.90;;;;;;5123553;28;19929;-43
2022/01/02 05:14:13;;;;;;;;;;;20.60;76.90;;;;;;5123566;28;19947;-44
2022/01/02 05:16:39;;;;;;;;;;;20.60;77.50;;;;;;5123334;28;19939;-43
2022/01/02 05:19:05;;;;;;;;;;;20.60;76.80;;;;;;5123308;28;19939;-43
2022/01/02 05:21:31;;;;;;;;;;;20.60;76.70;;;;;;5123604;28;19908;-43
2022/01/02 05:23:57;;;;;;;;;;;20.60;76.70;;;;;;5123612;28;19930;-44
2022/01/02 05:26:23;;;;;;;;;;;20.60;76.60;;;;;;5122890;28;20352;-44
2022/01/02 05:28:49;;;;;;;;;;;20.60;76.60;;;;;;5123310;28;19907;-43
2022/01/02 05:31:15;;;;;;;;;;;20.60;76.60;;;;;;5123183;28;19961;-44
2022/01/02 05:33:41;;;;;;;;;;;20.60;76.60;;;;;;5123336;28;19954;-43
2022/01/02 05:36:07;;;;;;;;;;;20.60;76.60;;;;;;5122968;28;20265;-43
2022/01/02 05:38:33;;;;;;;;;;;20.60;76.60;;;;;;5123436;28;19979;-44
2022/01/02 05:40:59;;;;;;;;;;;20.60;76.60;;;;;;5108685;28;19979;-43
2022/01/02 05:43:25;;;;;;;;;;;20.60;76.60;;;;;;5116132;28;20283;-44
2022/01/02 05:45:50;;;;;;;;;;;20.60;76.60;;;;;;5126582;28;20431;-45
2022/01/02 05:48:16;;;;;;;;;;;20.60;76.60;;;;;;5126747;28;19918;-43
2022/01/02 05:50:42;;;;;;;;;;;20.60;76.70;;;;;;5125399;28;20017;-43
2022/01/02 05:53:08;;;;;;;;;;;20.60;76.70;;;;;;5110238;28;19920;-42
2022/01/02 05:55:34;;;;;;;;;;;20.60;76.80;;;;;;5106271;28;19975;-43
2022/01/02 05:58:00;;;;;;;;;;;20.60;76.80;;;;;;5106259;28;19904;-43
2022/01/02 06:00:25;;;;;;;;;;;20.60;76.70;;;;;;5106365;28;20006;-43
2022/01/02 06:02:51;;;;;;;;;;;20.60;76.70;;;;;;5105914;28;20277;-43
2022/01/02 06:05:17;;;;;;;;;;;20.60;76.70;;;;;;5125515;28;19911;-43
2022/01/02 06:07:43;;;;;;;;;;;20.60;76.60;;;;;;5126612;28;19929;-43
2022/01/02 06:10:09;;;;;;;;;;;20.60;76.60;;;;;;5125218;28;20254;-44
2022/01/02 06:12:35;;;;;;;;;;;20.60;76.60;;;;;;5126369;28;19955;-43
2022/01/02 06:15:01;;;;;;;;;;;20.60;76.50;;;;;;5126018;28;19938;-43
2022/01/02 06:17:27;;;;;;;;;;;20.60;76.60;;;;;;5125976;28;19903;-43
2022/01/02 06:19:52;;;;;;;;;;;20.60;76.50;;;;;;5125863;28;19907;-43
2022/01/02 06:22:18;;;;;;;;;;;20.70;76.50;;;;;;5126190;28;19987;-44
2022/01/02 06:24:44;;;;;;;;;;;20.70;76.50;;;;;;5126383;28;20280;-43
2022/01/02 06:27:10;;;;;;;;;;;20.60;76.50;;;;;;5126110;28;20594;-42
2022/01/02 06:29:36;;;;;;;;;;;20.60;76.40;;;;;;5125856;28;19946;-44
2022/01/02 06:32:02;;;;;;;;;;;20.70;76.50;;;;;;5126120;28;19915;-43
2022/01/02 06:34:28;;;;;;;;;;;20.70;76.60;;;;;;5125680;28;19915;-43
2022/01/02 06:36:54;;;;;;;;;;;20.60;76.60;;;;;;5125978;28;19904;-43
2022/01/02 06:39:20;;;;;;;;;;;20.70;76.60;;;;;;5124340;28;19915;-43
2022/01/02 06:41:45;;;;;;;;;;;20.60;76.60;;;;;;5105240;28;19908;-43
2022/01/02 06:44:11;;;;;;;;;;;20.70;76.70;;;;;;5105419;28;19907;-43
2022/01/02 06:46:39;;;;;;;;;;;20.60;76.70;;;;;;5105460;28;19927;-43
2022/01/02 06:49:05;;;;;;;;;;;20.60;76.70;;;;;;5114144;28;19929;-43
2022/01/02 06:51:31;;;;;;;;;;;20.60;76.70;;;;;;5125373;28;19915;-43
2022/01/02 06:53:57;;;;;;;;;;;20.70;76.70;;;;;;5124976;28;19931;-42
2022/01/02 06:56:23;;;;;;;;;;;20.70;76.60;;;;;;5124944;28;19908;-43
2022/01/02 06:58:49;;;;;;;;;;;20.60;76.50;;;;;;5125288;28;20372;-43
2022/01/02 07:01:14;;;;;;;;;;;20.70;76.60;;;;;;5125159;28;20352;-43
2022/01/02 07:03:40;;;;;;;;;;;20.70;76.50;;;;;;5125058;28;19961;-42
2022/01/02 07:06:06;;;;;;;;;;;20.70;76.50;;;;;;5125444;28;19904;-44
2022/01/02 07:08:32;;;;;;;;;;;20.70;76.50;;;;;;5125067;28;20002;-43
2022/01/02 07:10:58;;;;;;;;;;;20.70;76.50;;;;;;5124070;28;19919;-42
2022/01/02 07:13:24;;;;;;;;;;;20.70;76.50;;;;;;5125075;28;19907;-43
2022/01/02 07:15:50;;;;;;;;;;;20.70;76.50;;;;;;5123792;28;19903;-43
2022/01/02 07:18:16;;;;;;;;;;;20.70;76.50;;;;;;5125021;28;20383;-43
2022/01/02 07:20:42;;;;;;;;;;;20.70;76.50;;;;;;5124918;28;19904;-43
2022/01/02 07:23:07;;;;;;;;;;;20.70;76.50;;;;;;5125048;28;19907;-43
2022/01/02 07:25:33;;;;;;;;;;;20.70;76.60;;;;;;5124955;28;19908;-43
2022/01/02 07:27:59;;;;;;;;;;;20.70;76.60;;;;;;5124809;28;20388;-46
2022/01/02 07:30:25;;;;;;;;;;;20.70;76.60;;;;;;5124729;28;19904;-43
2022/01/02 07:32:51;;;;;;;;;;;20.70;76.70;;;;;;5124889;28;19911;-43
2022/01/02 07:35:17;;;;;;;;;;;20.70;76.60;;;;;;5116149;28;20058;-43
2022/01/02 07:37:43;;;;;;;;;;;20.70;76.70;;;;;;5125073;28;19908;-43
2022/01/02 07:40:09;;;;;;;;;;;20.70;76.70;;;;;;5122591;28;19952;-45
2022/01/02 07:42:34;;;;;;;;;;;20.70;76.60;;;;;;5124574;28;19922;-43
2022/01/02 07:45:01;;;;;;;;;;;20.70;76.60;;;;;;5124711;28;19930;-43
2022/01/02 07:47:27;;;;;;;;;;;20.70;76.60;;;;;;5124522;28;19933;-43
2022/01/02 07:49:52;;;;;;;;;;;20.70;76.50;;;;;;5124025;28;19907;-43
2022/01/02 07:52:18;;;;;;;;;;;20.70;76.50;;;;;;5124316;28;19975;-43
2022/01/02 07:54:44;;;;;;;;;;;20.70;76.50;;;;;;5122764;28;19915;-43
2022/01/02 07:57:10;;;;;;;;;;;20.70;76.50;;;;;;5124471;28;19935;-42
2022/01/02 07:59:36;;;;;;;;;;;20.70;76.50;;;;;;5124348;28;20360;-43
2022/01/02 08:02:02;;;;;;;;;;;20.70;76.50;;;;;;5124470;28;20446;-42
2022/01/02 08:04:27;;;;;;;;;;;20.70;76.50;;;;;;5124134;28;20324;-45
2022/01/02 08:06:53;;;;;;;;;;;20.70;76.50;;;;;;5123788;28;20037;-43
2022/01/02 08:09:19;;;;;;;;;;;20.70;76.50;;;;;;5123138;28;20017;-43
2022/01/02 08:11:45;;;;;;;;;;;20.70;76.50;;;;;;5122549;28;19919;-45
2022/01/02 08:14:12;;;;;;;;;;;20.70;76.50;;;;;;5124336;28;19933;-43
2022/01/02 08:16:38;;;;;;;;;;;20.70;76.60;;;;;;5124088;28;19908;-43
2022/01/02 08:19:06;;;;;;;;;;;20.70;76.60;;;;;;5123897;28;19943;-44
2022/01/02 08:21:32;;;;;;;;;;;20.70;76.60;;;;;;5123607;28;19910;-43
2022/01/02 08:23:58;;;;;;;;;;;20.70;76.70;;;;;;5123891;28;19908;-43
2022/01/02 08:26:23;;;;;;;;;;;20.70;76.70;;;;;;5123964;28;19908;-43
2022/01/02 08:28:50;;;;;;;;;;;20.70;76.70;;;;;;5123995;28;19942;-43
2022/01/02 08:31:16;;;;;;;;;;;20.70;76.60;;;;;;5123529;28;19979;-44
2022/01/02 08:33:42;;;;;;;;;;;20.70;76.60;;;;;;5117355;28;19911;-43
2022/01/02 08:36:08;;;;;;;;;;;20.70;76.50;;;;;;5103576;28;19908;-43
2022/01/02 08:38:34;;;;;;;;;;;20.70;76.50;;;;;;5103258;28;19916;-45
2022/01/02 08:40:59;;;;;;;;;;;20.70;76.50;;;;;;5103756;28;19908;-44
2022/01/02 08:43:25;;;;;;;;;;;20.70;76.50;;;;;;5103510;28;19915;-43
2022/01/02 08:45:51;;;;;;;;;;;20.70;76.50;;;;;;5103605;28;19904;-43
2022/01/02 08:48:17;;;;;;;;;;;20.70;76.50;;;;;;5105907;28;19916;-43
2022/01/02 08:50:43;;;;;;;;;;;20.70;76.50;;;;;;5123617;28;19908;-43
2022/01/02 08:53:09;;;;;;;;;;;20.70;76.40;;;;;;5123677;28;19915;-43
2022/01/02 08:55:35;;;;;;;;;;;20.70;76.50;;;;;;5123355;28;19915;-43
2022/01/02 08:58:01;;;;;;;;;;;20.70;76.40;;;;;;5123575;28;20472;-43
2022/01/02 09:00:27;;;;;;;;;;;20.70;76.40;;;;;;5123309;28;19910;-43
2022/01/02 09:02:53;;;;;;;;;;;20.70;76.50;;;;;;5123732;28;19947;-43
2022/01/02 09:05:19;;;;;;;;;;;20.70;76.50;;;;;;5123560;28;19904;-43
2022/01/02 09:07:45;;;;;;;;;;;20.70;76.60;;;;;;5123714;28;19950;-43
2022/01/02 09:10:11;;;;;;;;;;;20.70;76.60;;;;;;5122306;28;20308;-44
2022/01/02 09:12:37;;;;;;;;;;;20.70;76.70;;;;;;5123077;28;19912;-44
2022/01/02 09:15:03;;;;;;;;;;;20.70;76.70;;;;;;5123750;28;19907;-45
2022/01/02 09:17:29;;;;;;;;;;;20.70;76.70;;;;;;5123599;28;20257;-43
2022/01/02 09:19:57;;;;;;;;;;;20.70;76.70;;;;;;5127179;28;19959;-43
2022/01/02 09:22:23;;;;;;;;;;;20.70;76.60;;;;;;5117014;28;19908;-43
2022/01/02 09:24:49;;;;;;;;;;;20.80;76.70;;;;;;5107139;28;19929;-44
2022/01/02 09:27:14;;;;;;;;;;;20.80;76.70;;;;;;5106697;28;19998;-43
2022/01/02 09:29:40;;;;;;;;;;;20.70;76.60;;;;;;5115694;28;19907;-42
2022/01/02 09:32:06;;;;;;;;;;;20.80;76.60;;;;;;5126940;28;19919;-43
2022/01/02 09:34:32;;;;;;;;;;;20.80;76.60;;;;;;5126918;28;19907;-43
2022/01/02 09:36:58;;;;;;;;;;;20.80;76.50;;;;;;5127163;28;19914;-44
2022/01/02 09:39:24;;;;;;;;;;;20.80;76.50;;;;;;5126465;28;20398;-43
2022/01/02 09:41:49;;;;;;;;;;;20.80;76.50;;;;;;5126702;28;20221;-43
2022/01/02 09:44:15;;;;;;;;;;;20.80;76.50;;;;;;5126969;28;19951;-43
2022/01/02 09:46:41;;;;;;;;;;;20.70;76.50;;;;;;5125525;28;19945;-43
2022/01/02 09:49:07;;;;;;;;;;;20.80;76.50;;;;;;5126401;28;19912;-43
2022/01/02 09:51:33;;;;;;;;;;;20.80;76.60;;;;;;5125333;28;19965;-43
2022/01/02 09:53:59;;;;;;;;;;;20.80;76.60;;;;;;5126682;28;19920;-43
2022/01/02 09:56:25;;;;;;;;;;;20.80;76.70;;;;;;5126810;28;19904;-43
2022/01/02 09:58:51;;;;;;;;;;;20.80;76.70;;;;;;5126793;28;20536;-43
2022/01/02 10:01:19;;;;;;;;;;;20.80;76.70;;;;;;5126381;28;19920;-43
2022/01/02 10:03:46;;;;;;;;;;;20.80;76.70;;;;;;5126185;28;19925;-43
2022/01/02 10:06:12;;;;;;;;;;;20.80;76.70;;;;;;5126581;28;19933;-43
2022/01/02 10:08:38;;;;;;;;;;;20.80;76.70;;;;;;5126269;28;19908;-43
2022/01/02 10:11:05;;;;;;;;;;;20.80;76.70;;;;;;5110598;28;19919;-44
2022/01/02 10:13:38;;;;;;;;;;;20.80;76.70;;;;;;5105679;28;19908;-43
2022/01/02 10:16:04;;;;;;;;;;;20.80;76.60;;;;;;5106011;28;19904;-44
2022/01/02 10:18:29;;;;;;;;;;;20.80;76.60;;;;;;5110120;28;19908;-43
2022/01/02 10:20:55;;;;;;;;;;;20.80;76.60;;;;;;5124947;28;19937;-44
2022/01/02 10:23:22;;;;;;;;;;;20.80;76.60;;;;;;5124536;28;19910;-45
2022/01/02 10:25:55;;;;;;;;;;;20.80;76.50;;;;;;5125681;28;19919;-43
2022/01/02 10:28:33;;;;;;;;;;;20.80;76.50;;;;;;5125999;28;19908;-43
2022/01/02 10:31:07;;;;;;;;;;;20.80;76.50;;;;;;5125868;28;19982;-43
2022/01/02 10:33:52;;;;;;;;;;;20.80;76.50;;;;;;5120805;28;19932;-43
2022/01/02 10:36:24;;;;;;;;;;;20.80;76.50;;;;;;5105751;28;20847;-43
2022/01/02 10:39:09;;;;;;;;;;;20.80;76.50;;;;;;5105522;28;19908;-43
2022/01/02 10:41:39;;;;;;;;;;;20.80;76.50;;;;;;5106470;28;19908;-43
2022/01/02 10:44:26;;;;;;;;;;;20.80;76.50;;;;;;5105293;28;20351;-43
2022/01/02 10:47:04;;;;;;;;;;;20.80;76.60;;;;;;5105446;28;19975;-47
2022/01/02 10:49:53;;;;;;;;;;;20.80;76.70;;;;;;5117847;28;19963;-43
2022/01/02 10:52:23;;;;;;;;;;;20.80;76.70;;;;;;5116928;28;19912;-43
2022/01/02 10:54:49;;;;;;;;;;;20.80;76.70;;;;;;5125606;28;19954;-43
2022/01/02 10:57:15;;;;;;;;;;;20.80;77.50;;;;;;5125396;28;19908;-43
2022/01/02 10:59:41;;;;;;;;;;;20.80;76.80;;;;;;5125566;28;19904;-42
2022/01/02 11:02:07;;;;;;;;;;;20.80;76.70;;;;;;5125460;28;19918;-41
2022/01/02 11:04:33;;;;;;;;;;;20.80;76.70;;;;;;5124137;28;20343;-41
2022/01/02 11:06:59;;;;;;;;;;;20.80;76.60;;;;;;5125381;28;20342;-40
2022/01/02 11:09:25;;;;;;;;;;;20.80;76.60;;;;;;5124270;28;19904;-41
2022/01/02 11:11:51;;;;;;;;;;;20.80;76.60;;;;;;5124961;28;20035;-41
2022/01/02 11:14:17;;;;;;;;;;;20.90;76.60;;;;;;5123736;28;19931;-41
2022/01/02 11:16:42;;;;;;;;;;;20.90;76.60;;;;;;5124041;28;20281;-41
2022/01/02 11:19:11;;;;;;;;;;;20.90;76.60;;;;;;5124793;28;20490;-40
2022/01/02 11:21:38;;;;;;;;;;;20.80;76.50;;;;;;5120975;28;19912;-41
2022/01/02 11:24:12;;;;;;;;;;;20.80;76.50;;;;;;5104517;28;19908;-41
2022/01/02 11:26:42;;;;;;;;;;;20.80;76.40;;;;;;5104634;28;19915;-43
2022/01/02 11:29:07;;;;;;;;;;;20.80;76.40;;;;;;5104682;28;19912;-44
2022/01/02 11:31:34;;;;;;;;;;;20.80;76.40;;;;;;5103098;28;19912;-43
2022/01/02 11:34:00;;;;;;;;;;;20.80;76.50;;;;;;5103995;28;19950;-41
2022/01/02 11:36:33;;;;;;;;;;;20.80;76.50;;;;;;5104541;28;20338;-41
2022/01/02 11:39:00;;;;;;;;;;;20.80;76.50;;;;;;5104312;28;20443;-42
2022/01/02 11:41:44;;;;;;;;;;;20.80;76.50;;;;;;5104772;28;19907;-41
2022/01/02 11:44:11;;;;;;;;;;;20.80;76.50;;;;;;5120340;28;19912;-41
2022/01/02 11:46:38;;;;;;;;;;;20.90;76.60;;;;;;5124633;28;20317;-42
2022/01/02 11:49:37;;;;;;;;;;;20.90;76.60;;;;;;5124224;28;19904;-43
2022/01/02 11:51:55;;;;;;;;;;;20.80;76.40;;;;;;5122219;28;19922;-42
2022/01/02 11:54:31;;;;;;;;;;;20.80;76.40;;;;;;5124179;28;19915;-41
2022/01/02 11:57:15;;;;;;;;;;;20.80;76.30;;;;;;5124551;28;19908;-42
2022/01/02 11:59:45;;;;;;;;;;;20.80;76.30;;;;;;5124400;28;19912;-41
2022/01/02 12:02:26;;;;;;;;;;;20.90;76.40;;;;;;5124347;28;19907;-41
2022/01/02 12:05:18;;;;;;;;;;;20.80;76.20;;;;;;5121775;28;19910;-42
2022/01/02 12:07:50;;;;;;;;;;;20.80;76.20;;;;;;5124050;28;19910;-42
2022/01/02 12:10:16;;;;;;;;;;;20.80;76.40;;;;;;5123038;28;19915;-43
2022/01/02 12:12:57;;;;;;;;;;;20.80;76.40;;;;;;5123978;28;19911;-42
2022/01/02 12:15:23;;;;;;;;;;;20.80;76.40;;;;;;5123823;27;19908;-42
2022/01/02 12:18:07;;;;;;;;;;;20.80;76.30;;;;;;5123889;28;19907;-42
2022/01/02 12:21:00;;;;;;;;;;;20.80;76.40;;;;;;5103693;28;19955;-42
2022/01/02 12:23:35;;;;;;;;;;;20.80;76.30;;;;;;5122375;28;19907;-42
2022/01/02 12:26:10;;;;;;;;;;;20.80;76.40;;;;;;5124098;28;19950;-43
2022/01/02 12:28:39;;;;;;;;;;;20.80;76.20;;;;;;5123878;28;19911;-43
2022/01/02 12:31:05;;;;;;;;;;;20.80;76.30;;;;;;5123927;28;19911;-42
2022/01/02 12:33:31;;;;;;;;;;;20.80;76.30;;;;;;5122980;28;19904;-42
2022/01/02 12:35:57;;;;;;;;;;;20.80;76.30;;;;;;5123751;28;19915;-42
2022/01/02 12:38:23;;;;;;;;;;;20.80;76.30;;;;;;5123919;28;20459;-42
2022/01/02 12:40:53;;;;;;;;;;;20.80;76.30;;;;;;5110146;28;19911;-42
2022/01/02 12:43:22;;;;;;;;;;;20.80;76.10;;;;;;5103481;28;19911;-42
2022/01/02 12:45:57;;;;;;;;;;;20.80;76.20;;;;;;5103311;28;19940;-42
2022/01/02 12:48:32;;;;;;;;;;;20.80;76.20;;;;;;5109505;28;19952;-43
2022/01/02 12:51:10;;;;;;;;;;;20.80;76.00;;;;;;5123088;28;19912;-45
2022/01/02 12:53:36;;;;;;;;;;;20.80;76.10;;;;;;5125016;28;19916;-42
2022/01/02 12:56:02;;;;;;;;;;;20.80;76.10;;;;;;5127715;28;19907;-43
2022/01/02 12:58:30;;;;;;;;;;;20.80;76.10;;;;;;5128002;28;19904;-42
2022/01/02 13:01:02;;;;;;;;;;;20.80;76.10;;;;;;5127792;28;19907;-42
2022/01/02 13:03:28;;;;;;;;;;;20.80;76.00;;;;;;5127375;28;19911;-43
2022/01/02 13:05:53;;;;;;;;;;;20.80;75.90;;;;;;5127320;28;19947;-42
2022/01/02 13:08:23;;;;;;;;;;;20.80;75.80;;;;;;5127655;28;19915;-46
2022/01/02 13:10:49;;;;;;;;;;;20.80;75.90;;;;;;5126530;28;20011;-43
2022/01/02 13:13:30;;;;;;;;;;;20.80;75.90;;;;;;5127728;28;19908;-44
2022/01/02 13:16:04;;;;;;;;;;;20.80;75.90;;;;;;5127628;28;19908;-43
2022/01/02 13:18:30;;;;;;;;;;;20.70;75.70;;;;;;5127147;28;19908;-42
2022/01/02 13:20:56;;;;;;;;;;;20.80;75.70;;;;;;5127362;28;19915;-43
2022/01/02 13:23:21;;;;;;;;;;;20.80;75.70;;;;;;5127399;28;19967;-43
2022/01/02 13:25:48;;;;;;;;;;;20.80;75.70;;;;;;5127095;28;19911;-43
2022/01/02 13:28:17;;;;;;;;;;;20.80;75.70;;;;;;5126849;28;19943;-42
2022/01/02 13:30:56;;;;;;;;;;;20.80;75.70;;;;;;5127278;28;20276;-43
2022/01/02 13:33:23;;;;;;;;;;;20.80;75.70;;;;;;5126533;28;19912;-42
2022/01/02 13:35:49;;;;;;;;;;;20.80;75.70;;;;;;5126997;28;19908;-43
2022/01/02 13:38:15;;;;;;;;;;;20.80;75.70;;;;;;5126860;28;19915;-45
2022/01/02 13:40:40;;;;;;;;;;;20.80;75.70;;;;;;5113392;28;19912;-43
2022/01/02 13:43:10;;;;;;;;;;;20.70;75.70;;;;;;5123666;28;19934;-43
2022/01/02 13:45:39;;;;;;;;;;;20.80;75.70;;;;;;5127120;28;19904;-43
2022/01/02 13:48:21;;;;;;;;;;;20.70;75.60;;;;;;5126403;28;19914;-44
2022/01/02 13:50:48;;;;;;;;;;;20.70;75.70;;;;;;5116260;28;19908;-42
2022/01/02 13:53:16;;;;;;;;;;;20.70;75.60;;;;;;5118071;28;19982;-43
2022/01/02 13:55:44;;;;;;;;;;;20.70;75.60;;;;;;5118552;28;19908;-44
2022/01/02 13:58:16;;;;;;;;;;;20.70;75.60;;;;;;5116633;28;20061;-43
2022/01/02 14:00:46;;;;;;;;;;;20.70;75.60;;;;;;5117925;28;20232;-45
2022/01/02 14:03:27;;;;;;;;;;;20.70;75.60;;;;;;5118950;28;19907;-42
2022/01/02 14:05:53;;;;;;;;;;;20.70;75.60;;;;;;5115250;28;20368;-43
2022/01/02 14:08:19;;;;;;;;;;;20.70;75.60;;;;;;5119792;28;19935;-44
2022/01/02 14:10:45;;;;;;;;;;;20.70;75.50;;;;;;5117311;28;20714;-43
2022/01/02 14:13:16;;;;;;;;;;;20.70;75.50;;;;;;5117882;28;20352;-47
2022/01/02 14:15:42;;;;;;;;;;;20.70;75.50;;;;;;5119128;28;19903;-45
2022/01/02 14:18:08;;;;;;;;;;;20.70;75.50;;;;;;5115960;28;19914;-44
2022/01/02 14:20:35;;;;;;;;;;;20.70;75.60;;;;;;5125661;28;19908;-43
2022/01/02 14:23:04;;;;;;;;;;;20.70;75.50;;;;;;5126190;27;19949;-43
2022/01/02 14:25:30;;;;;;;;;;;20.70;75.50;;;;;;5126192;28;19907;-43